Data for 11/17/2015

Time Sea-Level Adjusted Pressure Absolute Pressure Temperature Relative Humidity Dew Point   
(mb) (inHg) (mb) (inHg) (C) (F) (%) (C) (F)
00:05 1018 30.06 847 25.01 -6.3 20.7 61 -12.5 9.4
00:10 1018 30.06 847 25.01 -6 21.1 61 -12.3 9.8
00:15 1018 30.06 847 25.01 -5.9 21.4 62 -12 10.3
00:20 1018 30.06 847 25.01 -6.2 20.8 64 -11.9 10.5
00:25 1018 30.06 847 25.01 -6.4 20.4 65 -11.9 10.5
00:30 1017 30.03 847 25.01 -6.6 20.2 65 -12 10.3
00:35 1017 30.03 847 25.01 -6.6 20 66 -11.9 10.6
00:40 1017 30.03 847 25.01 -6.9 19.6 67 -11.9 10.5
00:45 1017 30.03 847 25.01 -6.7 19.9 67 -12 10.5
00:50 1017 30.03 847 25.01 -6.4 20.5 66 -11.8 10.8
00:55 1017 30.03 847 25.01 -6.5 20.4 66 -11.9 10.7
01:00 1017 30.03 847 25.01 -6.5 20.4 67 -11.6 11.2
01:05 1017 30.03 847 25.01 -6.6 20.1 67 -11.7 10.9
01:10 1017 30.03 847 25.01 -6.8 19.7 67 -11.9 10.6
01:15 1017 30.03 847 25.01 -6.9 19.7 67 -12 10.3
01:20 1017 30.03 847 25.01 -7 19.4 66 -12.3 9.8
01:25 1017 30.03 847 25.01 -7.2 19 66 -12.5 9.4
01:30 1017 30.03 846 24.98 -7.7 18.2 69 -12.5 9.5
01:35 1017 30.03 846 24.98 -7.6 18.3 71 -12.1 10.3
01:40 1017 30.03 846 24.98 -7.7 18.2 68 -12.6 9.2
01:45 1017 30.03 847 25.01 -7.9 17.7 69 -12.6 9.3
01:50 1017 30.03 846 24.98 -8.1 17.4 71 -12.5 9.5
01:55 1017 30.03 846 24.98 -8.1 17.3 71 -12.6 9.4
02:00 1017 30.03 846 24.98 -8.3 17 71 -12.7 9.1
02:05 1017 30.03 846 24.98 -8.2 17.2 70 -12.7 9.2
02:10 1017 30.03 846 24.98 -8.1 17.5 71 -12.5 9.6
02:15 1017 30.03 846 24.98 -7.9 17.8 69 -12.6 9.2
02:20 1017 30.03 846 24.98 -8 17.6 69 -12.7 9.2
02:25 1017 30.03 846 24.98 -8.1 17.4 69 -12.8 8.9
02:30 1017 30.03 846 24.98 -8 17.6 68 -12.9 8.8
02:35 1017 30.03 846 24.98 -7.8 18 68 -12.8 9
02:40 1017 30.03 846 24.98 -7.8 17.9 67 -12.8 8.9
02:45 1017 30.03 846 24.98 -7.8 17.9 67 -12.9 8.9
02:50 1017 30.03 846 24.98 -8.1 17.5 68 -12.9 8.7
02:55 1016 30 846 24.98 -8.2 17.3 68 -13.1 8.5
03:00 1016 30 846 24.98 -8.2 17.3 68 -13.1 8.3
03:05 1016 30 845 24.95 -8.2 17.3 68 -13.1 8.5
03:10 1016 30 845 24.95 -8.3 17.2 68 -13.2 8.2
03:15 1016 30 845 24.95 -8.3 17 69 -13 8.6
03:20 1016 30 846 24.98 -8.7 16.4 71 -13.1 8.4
03:25 1016 30 846 24.98 -8.8 16.2 70 -13.2 8.2
03:30 1016 30 845 24.95 -8.7 16.4 69 -13.5 7.7
03:35 1016 30 845 24.95 -8.4 17 67 -13.4 7.9
03:40 1016 30 845 24.95 -8.3 17 68 -13.3 8.1
03:45 1016 30 845 24.95 -8.3 17.1 67 -13.3 8
03:50 1016 30 845 24.95 -8.2 17.3 65 -13.6 7.4
03:55 1016 30 845 24.95 -8.2 17.3 65 -13.6 7.6
04:00 1016 30 845 24.95 -8.3 17.1 67 -13.4 7.9
04:05 1016 30 845 24.95 -8.3 17 67 -13.4 7.9
04:10 1016 30 845 24.95 -8.2 17.2 66 -13.5 7.6
04:15 1016 30 845 24.95 -7.7 18.1 64 -13.5 7.7
04:20 1016 30 845 24.95 -7.6 18.4 63 -13.4 7.9
04:25 1016 30 845 24.95 -7.4 18.6 62 -13.5 7.6
04:30 1015 29.97 845 24.95 -7.3 18.9 60 -13.7 7.3
04:35 1015 29.97 845 24.95 -7.3 18.8 62 -13.5 7.8
04:40 1015 29.97 845 24.95 -7.5 18.4 63 -13.4 7.9
04:45 1015 29.97 844 24.92 -7.7 18.2 64 -13.4 7.9
04:50 1015 29.97 844 24.92 -7.6 18.3 63 -13.5 7.6
04:55 1015 29.97 844 24.92 -7.4 18.7 63 -13.2 8.2
05:00 1015 29.97 844 24.92 -7.2 19 61 -13.5 7.8
05:05 1015 29.97 844 24.92 -7 19.4 58 -13.8 7.1
05:10 1015 29.97 844 24.92 -6.8 19.8 61 -13.2 8.2
05:15 1015 29.97 844 24.92 -7.4 18.6 64 -13.1 8.5
05:20 1015 29.97 844 24.92 -8 17.7 65 -13.5 7.7
05:25 1015 29.97 844 24.92 -8.1 17.3 65 -13.5 7.6
05:30 1015 29.97 844 24.92 -8 17.7 63 -13.8 7.2
05:35 1015 29.97 844 24.92 -7.6 18.4 61 -13.8 7.1
05:40 1015 29.97 844 24.92 -7.3 18.8 63 -13.3 8.1
05:45 1015 29.97 844 24.92 -7.5 18.5 65 -12.9 8.7
05:50 1015 29.97 844 24.92 -7.5 18.4 64 -13.3 8.1
05:55 1015 29.97 844 24.92 -7.3 18.8 62 -13.3 8
06:00 1015 29.97 844 24.92 -7.2 19.1 64 -12.8 8.9
06:05 1015 29.97 844 24.92 -6.9 19.6 65 -12.5 9.5
06:10 1015 29.97 844 24.92 -6.9 19.6 65 -12.4 9.7
06:15 1015 29.97 844 24.92 -6.9 19.6 67 -12.1 10.3
06:20 1015 29.97 844 24.92 -7 19.4 68 -12 10.4
06:25 1014 29.94 844 24.92 -6.9 19.7 68 -11.7 10.9
06:30 1014 29.94 843 24.89 -6.8 19.8 69 -11.6 11.2
06:35 1014 29.94 843 24.89 -6.7 20 68 -11.7 11
06:40 1014 29.94 843 24.89 -6.5 20.2 68 -11.6 11.2
06:45 1014 29.94 843 24.89 -6.4 20.6 67 -11.6 11.1
06:50 1014 29.94 843 24.89 -6.2 20.8 67 -11.4 11.5
06:55 1014 29.94 843 24.89 -6.1 21.1 68 -11.1 12
07:00 1014 29.94 843 24.89 -5.9 21.4 66 -11.3 11.6
07:05 1014 29.94 843 24.89 -6 21.2 66 -11.4 11.4
07:10 1014 29.94 843 24.89 -6.1 21.1 65 -11.7 10.9
07:15 1014 29.94 844 24.92 -5.9 21.4 63 -11.9 10.6
07:20 1014 29.94 844 24.92 -5.6 21.8 63 -11.6 11
07:25 1014 29.94 844 24.92 -5.7 21.8 63 -11.5 11.2
07:30 1014 29.94 844 24.92 -5.6 21.8 63 -11.5 11.3
07:35 1014 29.94 844 24.92 -5.4 22.3 59 -12.1 10.2
07:40 1014 29.94 844 24.92 -5 23 62 -11.2 11.9
07:45 1014 29.94 843 24.89 -5 23 61 -11.3 11.6
07:50 1014 29.94 843 24.89 -5 23 56 -12.5 9.6
07:55 1014 29.94 843 24.89 -4.9 23.2 59 -11.8 10.8
08:00 1014 29.94 843 24.89 -4.9 23.1 61 -11.3 11.6
08:05 1014 29.94 844 24.92 -4.8 23.4 63 -10.8 12.5
08:10 1014 29.94 844 24.92 -4.7 23.5 63 -10.7 12.7
08:15 1014 29.94 844 24.92 -4.4 24.1 63 -10.3 13.4
08:20 1015 29.97 844 24.92 -4.5 24 63 -10.5 13.1
08:25 1014 29.94 844 24.92 -4.9 23.1 68 -10 13.9
08:30 1014 29.94 844 24.92 -5.2 22.6 68 -10.3 13.5
08:35 1015 29.97 844 24.92 -5.2 22.6 67 -10.5 13.2
08:40 1015 29.97 844 24.92 -5 22.9 66 -10.4 13.3
08:45 1015 29.97 844 24.92 -5 23.1 61 -11.3 11.7
08:50 1015 29.97 844 24.92 -4.6 23.7 59 -11.4 11.4
08:55 1015 29.97 844 24.92 -4.3 24.2 58 -11.3 11.6
09:00 1015 29.97 844 24.92 -4.1 24.7 55 -11.9 10.7
09:05 1015 29.97 844 24.92 -3.6 25.6 54 -11.6 11.2
09:10 1015 29.97 844 24.92 -3.5 25.7 51 -12.2 10
09:15 1015 29.97 844 24.92 -3.2 26.3 58 -10.3 13.4
09:20 1015 29.97 844 24.92 -2.9 26.8 44 -13.5 7.8
09:25 1015 29.97 844 24.92 -2.6 27.3 58 -9.9 14.3
09:30 1015 29.97 844 24.92 -3.1 26.3 58 -10.3 13.5
09:35 1015 29.97 844 24.92 -3 26.5 57 -10.3 13.4
09:40 1015 29.97 844 24.92 -3 26.7 61 -9.5 14.9
09:45 1015 29.97 844 24.92 -3.3 26 63 -9.4 15
09:50 1015 29.97 844 24.92 -3.4 25.9 67 -8.6 16.5
09:55 1015 29.97 844 24.92 -3.4 25.8 65 -9.1 15.6
10:00 1015 29.97 844 24.92 -3.2 26.2 63 -9.3 15.2
10:05 1015 29.97 844 24.92 -3 26.6 62 -9.3 15.3
10:10 1015 29.97 844 24.92 -2.9 26.8 61 -9.4 15.1
10:15 1015 29.97 844 24.92 -2.7 27.1 61 -9.3 15.3
10:20 1015 29.97 844 24.92 -2.5 27.5 61 -9.1 15.7
10:25 1015 29.97 844 24.92 -2.3 27.8 52 -11 12.3
10:30 1015 29.97 844 24.92 -2.1 28.3 56 -9.7 14.6
10:35 1015 29.97 844 24.92 -1.8 28.8 49 -11 12.1
10:40 1015 29.97 844 24.92 -1.5 29.3 49 -10.8 12.6
10:45 1015 29.97 844 24.92 -1 30.2 50 -10.2 13.6
10:50 1014 29.94 844 24.92 -0.8 30.6 53 -9.3 15.3
10:55 1014 29.94 844 24.92 -0.7 30.7 52 -9.4 15.1
11:00 1015 29.97 844 24.92 -0.7 30.8 48 -10.4 13.4
11:05 1015 29.97 844 24.92 -0.5 31.1 50 -9.8 14.4
11:10 1015 29.97 844 24.92 -0.3 31.4 47 -10.2 13.6
11:15 1015 29.97 844 24.92 -0.1 31.8 48 -9.9 14.1
11:20 1015 29.97 844 24.92 0.2 32.3 49 -9.4 15
11:25 1015 29.97 844 24.92 0.6 33.2 46 -9.7 14.6
11:30 1015 29.97 844 24.92 1 33.8 43 -10.1 13.8
11:35 1015 29.97 844 24.92 1.3 34.3 43 -10.1 13.9
11:40 1015 29.97 844 24.92 1.3 34.3 44 -9.6 14.7
11:45 1015 29.97 844 24.92 1.1 34.1 47 -9 15.8
11:50 1015 29.97 844 24.92 1.5 34.6 47 -8.7 16.3
11:55 1015 29.97 844 24.92 1.4 34.6 46 -8.9 15.9
12:00 1015 29.97 844 24.92 1.5 34.6 48 -8.3 17.1
12:05 1015 29.97 844 24.92 1.6 34.8 48 -8.3 17
12:10 1014 29.94 844 24.92 2 35.6 47 -8.2 17.2
12:15 1014 29.94 844 24.92 1.8 35.3 47 -8.2 17.2
12:20 1014 29.94 844 24.92 2.2 36 48 -7.8 17.9
12:25 1014 29.94 843 24.89 2.8 37.1 45 -7.9 17.8
12:30 1014 29.94 843 24.89 3 37.3 44 -8.1 17.5
12:35 1014 29.94 843 24.89 2.8 37 44 -8.3 17
12:40 1014 29.94 843 24.89 2.9 37.2 44 -8.3 17.1
12:45 1014 29.94 843 24.89 2.8 37 44 -8.2 17.3
12:50 1014 29.94 843 24.89 2.5 36.5 45 -8.3 17.1
12:55 1014 29.94 843 24.89 2.9 37.2 44 -8.3 17.1
13:00 1014 29.94 843 24.89 2.8 37 45 -8 17.5
13:05 1014 29.94 843 24.89 2.8 37.1 45 -8 17.6
13:10 1013 29.91 843 24.89 3.4 38.1 44 -7.8 17.9
13:15 1013 29.91 843 24.89 4.3 39.7 42 -7.6 18.3
13:20 1013 29.91 842 24.86 5.1 41.1 40 -7.6 18.4
13:25 1013 29.91 842 24.86 5.8 42.5 39 -7.2 19
13:30 1013 29.91 842 24.86 6.2 43.1 38 -7.1 19.2
13:35 1013 29.91 842 24.86 6.2 43.2 37 -7.4 18.7
13:40 1013 29.91 842 24.86 6.5 43.7 39 -6.6 20.1
13:45 1013 29.91 842 24.86 5.9 42.6 41 -6.2 20.8
13:50 1013 29.91 842 24.86 5.3 41.5 44 -6 21.2
13:55 1013 29.91 842 24.86 5 40.9 45 -6.1 21.1
14:00 1013 29.91 842 24.86 4.9 40.8 47 -5.4 22.3
14:05 1013 29.91 842 24.86 4.8 40.7 45 -6.1 21
14:10 1013 29.91 842 24.86 4.8 40.7 46 -5.9 21.4
14:15 1013 29.91 842 24.86 4.7 40.5 46 -5.9 21.4
14:20 1013 29.91 842 24.86 4.7 40.4 48 -5.4 22.2
14:25 1013 29.91 842 24.86 4.6 40.2 47 -5.7 21.7
14:30 1012 29.88 842 24.86 4.4 39.9 50 -5.1 22.8
14:35 1012 29.88 842 24.86 4.5 40 47 -5.8 21.6
14:40 1012 29.88 842 24.86 4.5 40.1 47 -5.8 21.5
14:45 1012 29.88 842 24.86 4.4 39.9 48 -5.7 21.7
14:50 1012 29.88 841 24.83 4.4 39.9 48 -5.7 21.7
14:55 1012 29.88 841 24.83 4.5 40 50 -5.1 22.8
15:00 1012 29.88 841 24.83 4.5 40.2 48 -5.5 22.1
15:05 1012 29.88 841 24.83 4.7 40.5 48 -5.4 22.2
15:10 1012 29.88 841 24.83 5 41 47 -5.5 22.2
15:15 1012 29.88 841 24.83 5.4 41.6 48 -4.8 23.3
15:20 1012 29.88 841 24.83 5.4 41.8 47 -5.1 22.9
15:25 1011 29.85 841 24.83 5.8 42.4 46 -5 23.1
15:30 1011 29.85 841 24.83 5.5 42 49 -4.4 24.2
15:35 1011 29.85 841 24.83 5 41.1 48 -5.1 22.8
15:40 1011 29.85 841 24.83 5.1 41.2 48 -5 23
15:45 1011 29.85 841 24.83 5.1 41.2 49 -4.6 23.7
15:50 1011 29.85 840 24.81 5.2 41.4 50 -4.4 24
15:55 1011 29.85 840 24.81 5.3 41.5 50 -4.3 24.2
16:00 1011 29.85 840 24.81 5.6 42 50 -4.1 24.6
16:05 1011 29.85 840 24.81 6.1 43 48 -4 24.9
16:10 1011 29.85 840 24.81 6.7 44 47 -3.8 25.2
16:15 1011 29.85 840 24.81 6.8 44.3 46 -4.1 24.7
16:20 1011 29.85 840 24.81 6.9 44.4 46 -3.9 24.9
16:25 1010 29.83 840 24.81 6.9 44.3 46 -3.9 25
16:30 1010 29.83 840 24.81 6.9 44.4 47 -3.6 25.6
16:35 1010 29.83 840 24.81 6.9 44.3 47 -3.6 25.5
16:40 1011 29.85 840 24.81 6.8 44.2 49 -3.3 26.1
16:45 1010 29.83 840 24.81 6.5 43.7 49 -3.5 25.7
16:50 1010 29.83 840 24.81 6.4 43.5 47 -4 24.8
16:55 1010 29.83 840 24.81 6.6 43.8 47 -4 24.8
17:00 1010 29.83 839 24.78 6.8 44.2 46 -4 24.7
17:05 1010 29.83 839 24.78 6.8 44.2 46 -3.9 24.9
17:10 1010 29.83 839 24.78 6.8 44.3 46 -4 24.8
17:15 1010 29.83 839 24.78 6.8 44.3 46 -3.9 25
17:20 1010 29.83 839 24.78 6.6 43.9 47 -3.8 25.1
17:25 1010 29.83 839 24.78 6.5 43.8 47 -3.9 25
17:30 1010 29.83 839 24.78 6.4 43.5 47 -4 24.8
17:35 1010 29.83 839 24.78 6.4 43.6 47 -4 24.8
17:40 1010 29.83 839 24.78 6.5 43.6 47 -3.9 24.9
17:45 1010 29.83 839 24.78 6.3 43.3 48 -3.9 24.9
17:50 1010 29.83 839 24.78 6.2 43.1 47 -4.2 24.4
17:55 1010 29.83 839 24.78 6.3 43.4 46 -4.5 23.9
18:00 1009 29.8 839 24.78 6.2 43.2 47 -4.1 24.6
18:05 1009 29.8 839 24.78 6.2 43.2 47 -4.2 24.5
18:10 1009 29.8 838 24.75 6.1 42.9 48 -4.2 24.4
18:15 1009 29.8 838 24.75 5.9 42.6 48 -4.4 24.1
18:20 1009 29.8 838 24.75 5.9 42.6 48 -4.4 24.1
18:25 1009 29.8 838 24.75 5.8 42.4 48 -4.4 24.1
18:30 1009 29.8 838 24.75 5.7 42.2 48 -4.5 24
18:35 1009 29.8 838 24.75 5.5 42 49 -4.3 24.3
18:40 1009 29.8 838 24.75 5.3 41.6 51 -4.1 24.7
18:45 1009 29.8 838 24.75 5.1 41.2 50 -4.4 24.1
18:50 1009 29.8 838 24.75 5.1 41.2 50 -4.5 24
18:55 1009 29.8 838 24.75 5 41.1 51 -4.2 24.5
19:00 1009 29.8 838 24.75 5 41 52 -4.1 24.7
19:05 1009 29.8 838 24.75 5.1 41.2 49 -4.7 23.5
19:10 1008 29.77 838 24.75 5.6 42.1 46 -5 22.9
19:15 1008 29.77 837 24.72 5.9 42.6 46 -4.9 23.2
19:20 1008 29.77 837 24.72 6 42.8 45 -5.2 22.7
19:25 1008 29.77 837 24.72 6 42.8 45 -4.9 23.1
19:30 1008 29.77 837 24.72 5.8 42.5 46 -4.9 23.2
19:35 1008 29.77 837 24.72 5.7 42.3 47 -4.7 23.5
19:40 1008 29.77 837 24.72 5.7 42.2 47 -4.8 23.3
19:45 1008 29.77 837 24.72 5.8 42.4 47 -4.8 23.3
19:50 1008 29.77 837 24.72 5.8 42.4 48 -4.5 24
19:55 1008 29.77 837 24.72 5.6 42.1 49 -4.2 24.4
20:00 1008 29.77 837 24.72 5.5 41.9 49 -4.3 24.3
20:05 1008 29.77 837 24.72 5.5 41.9 48 -4.7 23.6
20:10 1008 29.77 837 24.72 5.9 42.6 45 -5 23
20:15 1008 29.77 837 24.72 6 42.7 47 -4.5 23.9
20:20 1007 29.74 837 24.72 5.9 42.7 46 -4.7 23.5
20:25 1007 29.74 837 24.72 5.9 42.6 47 -4.5 23.9
20:30 1007 29.74 836 24.69 5.8 42.4 48 -4.5 24
20:35 1007 29.74 836 24.69 5.6 42.1 48 -4.6 23.7
20:40 1007 29.74 836 24.69 5.5 42 47 -5 23.1
20:45 1007 29.74 836 24.69 5.7 42.2 46 -5 23
20:50 1007 29.74 836 24.69 5.7 42.2 45 -5.2 22.6
20:55 1007 29.74 836 24.69 6.1 42.9 43 -5.5 22.2
21:00 1007 29.74 836 24.69 6.1 42.9 45 -5.1 22.8
21:05 1007 29.74 836 24.69 5.6 42.2 46 -4.9 23.1
21:10 1007 29.74 836 24.69 5.4 41.7 46 -5.3 22.5
21:15 1006 29.71 836 24.69 6 42.7 43 -5.6 21.9
21:20 1006 29.71 836 24.69 6.1 43.1 41 -6 21.1
21:25 1006 29.71 835 24.66 6.2 43.2 42 -5.7 21.7
21:30 1006 29.71 835 24.66 6.1 43 43 -5.6 21.9
21:35 1006 29.71 835 24.66 6 42.8 44 -5.4 22.3
21:40 1006 29.71 835 24.66 5.8 42.5 41 -6.4 20.5
21:45 1006 29.71 835 24.66 6.1 43.1 43 -5.6 21.9
21:50 1006 29.71 835 24.66 5.7 42.2 45 -5.3 22.4
21:55 1005 29.68 835 24.66 5.4 41.7 47 -5 22.9
22:00 1005 29.68 834 24.63 5.3 41.6 45 -5.6 21.9
22:05 1005 29.68 835 24.66 5.2 41.4 47 -5.2 22.6
22:10 1005 29.68 835 24.66 5.1 41.2 47 -5.4 22.3
22:15 1005 29.68 834 24.63 5.2 41.4 45 -5.7 21.7
22:20 1005 29.68 834 24.63 5.4 41.7 45 -5.7 21.8
22:25 1005 29.68 834 24.63 5.4 41.7 45 -5.6 22
22:30 1005 29.68 834 24.63 5.5 41.9 45 -5.6 22
22:35 1005 29.68 834 24.63 5.7 42.3 44 -5.5 22
22:40 1004 29.65 834 24.63 5.9 42.6 44 -5.6 22
22:45 1004 29.65 833 24.6 6 42.8 43 -5.7 21.8
22:50 1004 29.65 833 24.6 6.1 42.9 43 -5.4 22.2
22:55 1004 29.65 833 24.6 6.1 43 42 -5.8 21.6
23:00 1004 29.65 833 24.6 6.3 43.3 43 -5.3 22.4
23:05 1003 29.62 833 24.6 6.2 43.1 44 -5.2 22.6
23:10 1003 29.62 833 24.6 6.4 43.4 43 -5.3 22.5
23:15 1003 29.62 832 24.57 6.2 43.1 45 -4.9 23.1
23:20 1003 29.62 832 24.57 6 42.8 43 -5.7 21.8
23:25 1003 29.62 832 24.57 6.7 44 42 -5.3 22.4
23:30 1003 29.62 832 24.57 6.8 44.2 42 -5.4 22.3
23:35 1002 29.59 832 24.57 7.1 44.7 42 -5.1 22.8
23:40 1002 29.59 831 24.54 7.3 45.1 42 -4.7 23.5
23:45 1002 29.59 831 24.54 7.3 45.1 42 -4.8 23.4
23:50 1002 29.59 831 24.54 7.2 45 42 -4.8 23.3
23:55 1002 29.59 831 24.54 7.2 45 43 -4.5 23.9
24:00 1002 29.59 831 24.54 7.1 44.9 42 -4.8 23.4